Time;durP1;ratioP1;P1;durP2;ratioP2;P2;SDS_P1;SDS_P2;PMS_P1;PMS_P2;Temp;Humidity;BMP_temperature;BMP_pressure;BME280_temperature;BME280_humidity;BME280_pressure;Samples;Min_cycle;Max_cycle;Signal;HPM_P1;HPM_P2
2022/11/27 00:01:00;;;;;;;70.88;23.40;;;;;;;;;;5035106;28;20490;-75
2022/11/27 00:03:26;;;;;;;59.75;21.75;;;;;;;;;;5034706;28;20030;-76
2022/11/27 00:05:53;;;;;;;65.88;21.98;;;;;;;;;;5035998;28;20112;-75
2022/11/27 00:08:19;;;;;;;68.10;21.88;;;;;;;;;;5043712;28;20032;-74
2022/11/27 00:10:45;;;;;;;64.00;20.98;;;;;;;;;;5054002;28;20030;-74
2022/11/27 00:13:11;;;;;;;55.05;20.13;;;;;;;;;;5054407;28;20095;-74
2022/11/27 00:15:37;;;;;;;62.00;21.17;;;;;;;;;;5053440;28;20033;-74
2022/11/27 00:18:03;;;;;;;59.03;21.13;;;;;;;;;;5056132;28;20029;-74
2022/11/27 00:20:29;;;;;;;63.83;19.42;;;;;;;;;;5050490;28;20112;-75
2022/11/27 00:22:55;;;;;;;56.78;19.40;;;;;;;;;;5054124;28;20122;-76
2022/11/27 00:25:21;;;;;;;60.72;18.60;;;;;;;;;;5047628;28;20029;-76
2022/11/27 00:27:47;;;;;;;65.43;19.88;;;;;;;;;;5037482;28;20124;-76
2022/11/27 00:30:14;;;;;;;51.65;17.98;;;;;;;;;;5037487;28;20076;-75
2022/11/27 00:32:40;;;;;;;59.50;18.92;;;;;;;;;;5037234;28;20026;-75
2022/11/27 00:35:06;;;;;;;53.05;17.58;;;;;;;;;;5037295;28;20165;-75
2022/11/27 00:37:32;;;;;;;60.90;18.58;;;;;;;;;;5035634;28;20029;-75
2022/11/27 00:39:58;;;;;;;49.75;17.00;;;;;;;;;;5037292;28;20028;-76
2022/11/27 00:42:24;;;;;;;55.22;19.25;;;;;;;;;;5036785;28;20025;-75
2022/11/27 00:44:50;;;;;;;64.38;18.70;;;;;;;;;;5036993;28;20033;-74
2022/11/27 00:47:16;;;;;;;44.80;17.38;;;;;;;;;;5036374;28;20555;-75
2022/11/27 00:49:42;;;;;;;46.15;17.70;;;;;;;;;;5036466;28;20104;-75
2022/11/27 00:52:08;;;;;;;46.35;16.27;;;;;;;;;;5035806;28;20040;-75
2022/11/27 00:54:34;;;;;;;46.65;17.08;;;;;;;;;;5037260;28;20129;-73
2022/11/27 00:57:00;;;;;;;57.25;16.85;;;;;;;;;;5036756;28;20593;-75
2022/11/27 00:59:26;;;;;;;51.00;16.88;;;;;;;;;;5036599;28;20021;-75
2022/11/27 01:01:52;;;;;;;47.08;16.83;;;;;;;;;;5034957;28;20017;-75
2022/11/27 01:04:18;;;;;;;47.30;16.60;;;;;;;;;;5036341;28;20017;-75
2022/11/27 01:06:44;;;;;;;46.03;16.10;;;;;;;;;;5035198;28;20021;-76
2022/11/27 01:09:12;;;;;;;55.00;16.80;;;;;;;;;;5035136;28;20029;-74
2022/11/27 01:11:38;;;;;;;53.58;17.05;;;;;;;;;;5035964;28;20049;-75
2022/11/27 01:14:05;;;;;;;57.85;16.58;;;;;;;;;;5035760;28;20030;-74
2022/11/27 01:16:32;;;;;;;51.17;16.48;;;;;;;;;;5036030;28;20478;-75
2022/11/27 01:18:59;;;;;;;54.17;15.85;;;;;;;;;;5035960;28;20105;-74
2022/11/27 01:21:26;;;;;;;50.75;15.30;;;;;;;;;;5035985;28;20075;-76
2022/11/27 01:23:53;;;;;;;45.53;14.40;;;;;;;;;;5034515;28;20029;-75
2022/11/27 01:26:19;;;;;;;46.25;13.95;;;;;;;;;;5035827;28;20064;-75
2022/11/27 01:28:45;;;;;;;44.47;13.65;;;;;;;;;;5035832;28;20025;-74
2022/11/27 01:31:15;;;;;;;53.28;13.77;;;;;;;;;;5035564;28;20036;-75
2022/11/27 01:33:42;;;;;;;43.15;13.18;;;;;;;;;;5035996;28;20021;-75
2022/11/27 01:36:08;;;;;;;62.65;14.30;;;;;;;;;;5034644;28;20482;-75
2022/11/27 01:38:34;;;;;;;53.05;12.98;;;;;;;;;;5036368;28;20044;-74
2022/11/27 01:41:05;;;;;;;53.67;13.30;;;;;;;;;;5035823;28;20441;-75
2022/11/27 01:43:37;;;;;;;39.55;12.05;;;;;;;;;;5035443;28;20421;-75
2022/11/27 01:46:04;;;;;;;47.33;13.85;;;;;;;;;;5038214;28;20021;-75
2022/11/27 01:48:30;;;;;;;44.58;13.10;;;;;;;;;;5046590;28;20026;-75
2022/11/27 01:50:56;;;;;;;41.38;11.75;;;;;;;;;;5047816;28;20030;-76
2022/11/27 01:53:23;;;;;;;40.97;12.02;;;;;;;;;;5049019;28;20013;-75
2022/11/27 01:55:53;;;;;;;36.10;11.88;;;;;;;;;;5047175;28;20021;-75
2022/11/27 01:58:24;;;;;;;41.88;12.70;;;;;;;;;;5042134;28;20033;-76
2022/11/27 02:00:51;;;;;;;46.88;12.07;;;;;;;;;;5038285;28;20013;-76
2022/11/27 02:03:17;;;;;;;48.78;12.40;;;;;;;;;;5036211;28;20022;-75
2022/11/27 02:05:43;;;;;;;47.67;11.63;;;;;;;;;;5033995;28;20132;-75
2022/11/27 02:08:10;;;;;;;53.67;11.88;;;;;;;;;;5033787;28;20108;-76
2022/11/27 02:10:45;;;;;;;50.75;11.40;;;;;;;;;;5033993;28;20048;-75
2022/11/27 02:13:13;;;;;;;41.78;11.23;;;;;;;;;;5033878;28;20032;-74
2022/11/27 02:15:43;;;;;;;48.50;11.50;;;;;;;;;;5034013;28;20422;-75
2022/11/27 02:18:09;;;;;;;45.28;11.43;;;;;;;;;;5038518;28;20121;-75
2022/11/27 02:20:43;;;;;;;39.13;10.90;;;;;;;;;;5046926;28;20386;-76
2022/11/27 02:23:09;;;;;;;37.20;11.18;;;;;;;;;;5041474;28;20014;-75
2022/11/27 02:25:51;;;;;;;44.90;10.95;;;;;;;;;;5039984;28;20037;-75
2022/11/27 02:28:28;;;;;;;32.33;10.82;;;;;;;;;;5039071;28;20056;-76
2022/11/27 02:31:02;;;;;;;29.05;10.70;;;;;;;;;;5035756;28;20398;-75
2022/11/27 02:33:28;;;;;;;38.15;12.07;;;;;;;;;;5035400;28;20034;-75
2022/11/27 02:36:06;;;;;;;30.73;10.60;;;;;;;;;;5032846;28;20026;-75
2022/11/27 02:38:37;;;;;;;36.00;10.20;;;;;;;;;;5034165;28;20030;-75
2022/11/27 02:41:17;;;;;;;38.72;11.10;;;;;;;;;;5033750;28;20034;-75
2022/11/27 02:43:45;;;;;;;29.65;10.52;;;;;;;;;;5033589;28;20030;-76
2022/11/27 02:46:12;;;;;;;40.60;12.20;;;;;;;;;;5032951;28;20029;-75
2022/11/27 02:48:42;;;;;;;28.75;10.70;;;;;;;;;;5032867;28;20033;-76
2022/11/27 02:51:09;;;;;;;29.25;10.90;;;;;;;;;;5046835;28;20029;-75
2022/11/27 02:53:37;;;;;;;38.72;12.25;;;;;;;;;;5042000;28;20030;-74
2022/11/27 02:56:05;;;;;;;33.65;12.77;;;;;;;;;;5034991;28;20029;-74
2022/11/27 02:58:32;;;;;;;39.28;11.32;;;;;;;;;;5038587;28;20083;-74
2022/11/27 03:00:59;;;;;;;34.25;11.13;;;;;;;;;;5053246;28;20033;-75
2022/11/27 03:03:27;;;;;;;28.13;11.07;;;;;;;;;;5055604;28;20037;-75
2022/11/27 03:05:56;;;;;;;34.33;12.45;;;;;;;;;;5054985;28;20029;-73
2022/11/27 03:08:28;;;;;;;28.98;11.52;;;;;;;;;;5033668;28;20056;-73
2022/11/27 03:10:57;;;;;;;41.08;13.38;;;;;;;;;;5034361;28;20033;-74
2022/11/27 03:13:24;;;;;;;38.55;13.85;;;;;;;;;;5034092;28;20029;-78
2022/11/27 03:15:50;;;;;;;38.58;14.15;;;;;;;;;;5031989;28;20026;-77
2022/11/27 03:18:36;;;;;;;39.50;14.52;;;;;;;;;;5034493;28;20036;-78
2022/11/27 03:21:06;;;;;;;36.75;13.07;;;;;;;;;;5022603;28;20036;-77
2022/11/27 03:23:32;;;;;;;36.30;13.43;;;;;;;;;;5035493;28;20094;-78
2022/11/27 03:25:57;;;;;;;39.90;12.35;;;;;;;;;;5034499;28;20032;-79
2022/11/27 03:28:24;;;;;;;42.47;15.07;;;;;;;;;;5034348;28;20299;-78
2022/11/27 03:30:49;;;;;;;34.55;13.55;;;;;;;;;;5034289;28;20037;-78
2022/11/27 03:33:17;;;;;;;45.17;13.75;;;;;;;;;;5032896;28;20029;-77
2022/11/27 03:35:43;;;;;;;34.05;13.73;;;;;;;;;;5032415;28;20065;-78
2022/11/27 03:38:09;;;;;;;43.75;14.75;;;;;;;;;;5032879;28;20402;-78
2022/11/27 03:40:45;;;;;;;46.78;14.57;;;;;;;;;;5032093;28;20033;-77
2022/11/27 03:43:18;;;;;;;43.45;13.63;;;;;;;;;;5032115;28;20034;-78
2022/11/27 03:45:47;;;;;;;35.95;12.95;;;;;;;;;;5032331;28;20109;-77
2022/11/27 03:48:13;;;;;;;46.40;13.88;;;;;;;;;;5031486;28;20117;-77
2022/11/27 03:50:54;;;;;;;35.53;13.57;;;;;;;;;;5035231;28;20061;-78
2022/11/27 03:53:37;;;;;;;41.97;13.73;;;;;;;;;;5033834;28;20496;-77
2022/11/27 03:56:03;;;;;;;45.15;13.68;;;;;;;;;;5031675;28;20057;-77
2022/11/27 03:58:33;;;;;;;39.70;13.55;;;;;;;;;;5034638;28;20523;-77
2022/11/27 04:01:00;;;;;;;45.30;13.45;;;;;;;;;;5031808;28;20017;-77
2022/11/27 04:03:27;;;;;;;37.83;12.65;;;;;;;;;;5033002;28;20096;-77
2022/11/27 04:05:53;;;;;;;36.35;12.85;;;;;;;;;;5042554;28;20025;-77
2022/11/27 04:08:19;;;;;;;37.15;12.48;;;;;;;;;;5048929;28;20257;-77
2022/11/27 04:10:45;;;;;;;49.75;15.02;;;;;;;;;;5047881;28;20057;-77
2022/11/27 04:13:11;;;;;;;47.13;13.73;;;;;;;;;;5048383;28;20052;-76
2022/11/27 04:15:37;;;;;;;48.88;14.27;;;;;;;;;;5051604;28;20592;-75
2022/11/27 04:18:03;;;;;;;38.13;14.70;;;;;;;;;;5051425;28;20037;-77
2022/11/27 04:20:29;;;;;;;43.33;14.55;;;;;;;;;;5039133;28;20028;-76
2022/11/27 04:22:55;;;;;;;42.38;14.70;;;;;;;;;;5031074;28;20022;-76
2022/11/27 04:25:21;;;;;;;43.33;15.18;;;;;;;;;;5032587;28;20467;-77
2022/11/27 04:27:47;;;;;;;43.95;14.60;;;;;;;;;;5031400;28;20033;-76
2022/11/27 04:30:13;;;;;;;42.20;14.63;;;;;;;;;;5031896;28;20398;-77
2022/11/27 04:32:39;;;;;;;41.47;14.98;;;;;;;;;;5032646;28;20021;-76
2022/11/27 04:35:05;;;;;;;41.85;14.57;;;;;;;;;;5031341;28;20053;-76
2022/11/27 04:37:31;;;;;;;47.78;15.75;;;;;;;;;;5031952;28;20025;-77
2022/11/27 04:39:57;;;;;;;48.97;15.82;;;;;;;;;;5032288;28;20029;-77
2022/11/27 04:42:23;;;;;;;47.42;15.40;;;;;;;;;;5032307;28;20091;-77
2022/11/27 04:44:49;;;;;;;41.13;15.50;;;;;;;;;;5032794;28;20071;-78
2022/11/27 04:47:15;;;;;;;37.03;14.60;;;;;;;;;;5031784;28;20026;-77
2022/11/27 04:49:41;;;;;;;44.90;15.52;;;;;;;;;;5039803;28;20619;-76
2022/11/27 04:52:07;;;;;;;48.38;16.05;;;;;;;;;;5046191;28;20029;-76
2022/11/27 04:54:33;;;;;;;49.90;16.60;;;;;;;;;;5041616;28;20033;-77
2022/11/27 04:56:59;;;;;;;54.50;17.00;;;;;;;;;;5054208;28;20036;-78
2022/11/27 04:59:25;;;;;;;47.00;16.88;;;;;;;;;;5056492;28;20013;-75
2022/11/27 05:01:51;;;;;;;54.72;16.48;;;;;;;;;;5059205;28;20044;-77
2022/11/27 05:04:17;;;;;;;63.33;17.67;;;;;;;;;;5056903;28;20104;-76
2022/11/27 05:06:43;;;;;;;47.33;17.20;;;;;;;;;;5056814;28;20033;-78
2022/11/27 05:09:09;;;;;;;44.97;17.88;;;;;;;;;;5054047;28;20030;-75
2022/11/27 05:11:35;;;;;;;46.25;19.83;;;;;;;;;;5038518;28;20029;-76
2022/11/27 05:14:16;;;;;;;58.75;21.02;;;;;;;;;;5035737;28;20117;-76
2022/11/27 05:16:48;;;;;;;71.00;23.27;;;;;;;;;;5033569;28;20494;-78
2022/11/27 05:19:15;;;;;;;53.83;23.13;;;;;;;;;;5035098;28;20474;-76
2022/11/27 05:21:41;;;;;;;68.03;25.63;;;;;;;;;;5034988;28;20028;-75
2022/11/27 05:24:07;;;;;;;70.38;26.55;;;;;;;;;;5035112;28;20026;-75
2022/11/27 05:26:33;;;;;;;76.30;28.63;;;;;;;;;;5034432;28;20029;-77
2022/11/27 05:28:59;;;;;;;58.83;26.98;;;;;;;;;;5034700;28;20022;-77
2022/11/27 05:31:25;;;;;;;63.17;27.35;;;;;;;;;;5037204;28;20113;-77
2022/11/27 05:33:51;;;;;;;78.30;29.73;;;;;;;;;;5035046;28;20465;-77
2022/11/27 05:36:17;;;;;;;75.55;29.25;;;;;;;;;;5032321;28;20120;-76
2022/11/27 05:38:43;;;;;;;61.42;26.23;;;;;;;;;;5037278;28;20144;-77
2022/11/27 05:41:09;;;;;;;65.82;25.80;;;;;;;;;;5036030;28;20095;-77
2022/11/27 05:43:35;;;;;;;60.70;24.92;;;;;;;;;;5035245;28;20026;-76
2022/11/27 05:46:08;;;;;;;59.50;25.25;;;;;;;;;;5036823;28;20033;-75
2022/11/27 05:48:34;;;;;;;57.40;24.35;;;;;;;;;;5037874;28;20052;-76
2022/11/27 05:51:00;;;;;;;60.42;25.17;;;;;;;;;;5035111;28;20029;-76
2022/11/27 05:53:26;;;;;;;58.53;25.77;;;;;;;;;;5035398;28;20028;-76
2022/11/27 05:55:52;;;;;;;66.72;27.65;;;;;;;;;;5034392;28;20445;-76
2022/11/27 05:58:18;;;;;;;62.50;26.67;;;;;;;;;;5034424;28;20208;-76
2022/11/27 06:00:44;;;;;;;67.57;28.17;;;;;;;;;;5033040;28;20032;-76
2022/11/27 06:03:10;;;;;;;68.47;28.35;;;;;;;;;;5034486;28;20296;-76
2022/11/27 06:05:39;;;;;;;72.05;30.13;;;;;;;;;;5033980;28;20056;-76
2022/11/27 06:08:05;;;;;;;59.45;30.23;;;;;;;;;;5034064;28;20022;-74
2022/11/27 06:10:31;;;;;;;62.20;29.98;;;;;;;;;;5031555;28;20420;-76
2022/11/27 06:12:57;;;;;;;71.97;31.10;;;;;;;;;;5033578;28;20029;-76
2022/11/27 06:15:23;;;;;;;72.95;32.92;;;;;;;;;;5040209;28;20029;-75
2022/11/27 06:17:49;;;;;;;71.32;32.85;;;;;;;;;;5053081;28;20013;-75
2022/11/27 06:20:15;;;;;;;66.88;31.48;;;;;;;;;;5044643;28;20022;-78
2022/11/27 06:22:41;;;;;;;65.32;30.90;;;;;;;;;;5038088;28;20021;-74
2022/11/27 06:25:08;;;;;;;69.97;32.60;;;;;;;;;;5047848;28;20056;-75
2022/11/27 06:27:34;;;;;;;69.18;33.63;;;;;;;;;;5053445;28;20113;-75
2022/11/27 06:30:00;;;;;;;64.68;30.45;;;;;;;;;;5056455;28;20037;-74
2022/11/27 06:32:26;;;;;;;67.35;30.88;;;;;;;;;;5056934;28;20081;-74
2022/11/27 06:34:52;;;;;;;70.63;31.42;;;;;;;;;;5057692;28;20021;-74
2022/11/27 06:37:18;;;;;;;67.65;31.83;;;;;;;;;;5055853;28;20021;-74
2022/11/27 06:39:44;;;;;;;68.93;31.30;;;;;;;;;;5032320;28;20104;-74
2022/11/27 06:42:10;;;;;;;64.80;29.75;;;;;;;;;;5030471;28;20029;-73
2022/11/27 06:44:35;;;;;;;64.20;30.33;;;;;;;;;;5032753;28;20394;-75
2022/11/27 06:47:01;;;;;;;59.20;28.98;;;;;;;;;;5031652;28;20029;-75
2022/11/27 06:49:27;;;;;;;66.03;29.77;;;;;;;;;;5033620;28;20064;-74
2022/11/27 06:51:53;;;;;;;62.22;28.90;;;;;;;;;;5033280;28;20026;-75
2022/11/27 06:54:19;;;;;;;62.65;29.73;;;;;;;;;;5033300;28;20030;-74
2022/11/27 06:56:45;;;;;;;65.32;28.35;;;;;;;;;;5031521;28;20017;-74
2022/11/27 06:59:14;;;;;;;54.53;27.50;;;;;;;;;;5033185;28;20082;-74
2022/11/27 07:01:41;;;;;;;55.38;27.73;;;;;;;;;;5032129;28;20096;-75
2022/11/27 07:04:09;;;;;;;58.92;27.42;;;;;;;;;;5038502;28;20478;-74
2022/11/27 07:06:35;;;;;;;56.70;27.75;;;;;;;;;;5044732;28;20096;-74
2022/11/27 07:09:01;;;;;;;64.32;27.60;;;;;;;;;;5044830;28;20044;-74
2022/11/27 07:11:28;;;;;;;57.53;27.65;;;;;;;;;;5046297;28;20040;-74
2022/11/27 07:13:56;;;;;;;52.47;26.15;;;;;;;;;;5037201;28;20021;-75
2022/11/27 07:16:22;;;;;;;56.83;27.52;;;;;;;;;;5030626;28;20025;-75
2022/11/27 07:18:49;;;;;;;58.50;28.63;;;;;;;;;;5033130;28;20482;-76
2022/11/27 07:21:15;;;;;;;61.03;28.95;;;;;;;;;;5032888;28;20029;-75
2022/11/27 07:23:42;;;;;;;63.38;27.55;;;;;;;;;;5032506;28;20018;-75
2022/11/27 07:26:09;;;;;;;53.72;26.45;;;;;;;;;;5032073;28;20053;-75
2022/11/27 07:28:35;;;;;;;61.90;28.02;;;;;;;;;;5032893;28;20068;-77
2022/11/27 07:31:01;;;;;;;60.42;27.73;;;;;;;;;;5042080;28;20406;-78
2022/11/27 07:33:27;;;;;;;57.28;27.90;;;;;;;;;;5038227;28;20537;-77
2022/11/27 07:36:00;;;;;;;63.97;31.08;;;;;;;;;;5032205;28;20081;-77
2022/11/27 07:38:26;;;;;;;66.22;31.10;;;;;;;;;;5032491;28;20959;-76
2022/11/27 07:40:52;;;;;;;59.33;27.40;;;;;;;;;;5031253;28;20108;-74
2022/11/27 07:43:18;;;;;;;52.72;27.23;;;;;;;;;;5032154;28;20030;-75
2022/11/27 07:45:44;;;;;;;55.13;27.00;;;;;;;;;;5037248;28;20537;-74
2022/11/27 07:48:10;;;;;;;55.65;26.98;;;;;;;;;;5039265;28;20057;-75
2022/11/27 07:50:36;;;;;;;58.78;26.50;;;;;;;;;;5033024;28;20072;-77
2022/11/27 07:53:02;;;;;;;58.47;26.50;;;;;;;;;;5032897;28;20061;-76
2022/11/27 07:55:28;;;;;;;57.47;28.27;;;;;;;;;;5040525;28;20056;-77
2022/11/27 07:57:54;;;;;;;61.63;28.10;;;;;;;;;;5032730;28;20029;-76
2022/11/27 08:00:20;;;;;;;52.88;26.05;;;;;;;;;;5032880;28;20028;-76
2022/11/27 08:02:46;;;;;;;53.50;26.42;;;;;;;;;;5033310;28;20451;-76
2022/11/27 08:05:12;;;;;;;59.25;27.55;;;;;;;;;;5033110;28;20060;-76
2022/11/27 08:07:38;;;;;;;52.55;26.65;;;;;;;;;;5031350;28;20026;-76
2022/11/27 08:10:04;;;;;;;56.42;27.33;;;;;;;;;;5034276;28;20025;-76
2022/11/27 08:12:30;;;;;;;57.08;28.05;;;;;;;;;;5033391;28;20471;-75
2022/11/27 08:14:56;;;;;;;52.40;26.83;;;;;;;;;;5045926;28;20060;-75
2022/11/27 08:17:22;;;;;;;54.33;26.52;;;;;;;;;;5040708;28;20044;-75
2022/11/27 08:19:48;;;;;;;52.78;25.98;;;;;;;;;;5043457;28;20021;-76
2022/11/27 08:22:15;;;;;;;56.25;27.02;;;;;;;;;;5040024;28;20079;-74
2022/11/27 08:24:41;;;;;;;55.30;25.95;;;;;;;;;;5036770;28;20030;-74
2022/11/27 08:27:10;;;;;;;52.40;26.48;;;;;;;;;;5032030;28;20506;-75
2022/11/27 08:29:37;;;;;;;56.15;25.42;;;;;;;;;;5033210;28;20079;-76
2022/11/27 08:32:03;;;;;;;53.22;25.88;;;;;;;;;;5036780;28;20025;-76
2022/11/27 08:34:29;;;;;;;53.92;25.90;;;;;;;;;;5042365;28;20057;-75
2022/11/27 08:36:55;;;;;;;47.58;23.05;;;;;;;;;;5042618;28;20026;-75
2022/11/27 08:39:21;;;;;;;48.17;23.90;;;;;;;;;;5039360;28;20025;-75
2022/11/27 08:41:47;;;;;;;50.08;22.98;;;;;;;;;;5044670;28;20025;-74
2022/11/27 08:44:13;;;;;;;48.60;23.08;;;;;;;;;;5048956;28;20033;-75
2022/11/27 08:46:39;;;;;;;56.22;24.45;;;;;;;;;;5048933;28;20026;-74
2022/11/27 08:49:05;;;;;;;53.20;23.40;;;;;;;;;;5054246;28;20036;-75
2022/11/27 08:51:30;;;;;;;48.55;22.10;;;;;;;;;;5052293;28;20081;-74
2022/11/27 08:53:56;;;;;;;45.78;22.40;;;;;;;;;;5036208;28;20021;-75
2022/11/27 08:56:24;;;;;;;46.05;22.35;;;;;;;;;;5035230;28;20512;-75
2022/11/27 08:58:50;;;;;;;52.75;22.23;;;;;;;;;;5035766;28;20029;-75
2022/11/27 09:01:17;;;;;;;41.45;21.08;;;;;;;;;;5035386;28;20508;-75
2022/11/27 09:03:44;;;;;;;49.20;21.67;;;;;;;;;;5035641;28;20402;-75
2022/11/27 09:06:11;;;;;;;47.28;21.02;;;;;;;;;;5033852;28;20018;-75
2022/11/27 09:08:37;;;;;;;49.97;21.20;;;;;;;;;;5034545;28;20033;-74
2022/11/27 09:11:04;;;;;;;39.00;19.27;;;;;;;;;;5031423;28;20036;-74
2022/11/27 09:13:30;;;;;;;41.33;18.23;;;;;;;;;;5036272;28;20033;-75
2022/11/27 09:15:57;;;;;;;35.00;17.92;;;;;;;;;;5035513;28;20033;-74
2022/11/27 09:18:23;;;;;;;39.35;17.83;;;;;;;;;;5036064;28;20026;-74
2022/11/27 09:20:56;;;;;;;35.47;17.23;;;;;;;;;;5034717;28;20025;-75
2022/11/27 09:23:22;;;;;;;37.03;17.00;;;;;;;;;;5035848;28;20108;-75
2022/11/27 09:25:48;;;;;;;34.72;15.60;;;;;;;;;;5034812;28;20022;-74
2022/11/27 09:28:14;;;;;;;38.58;15.95;;;;;;;;;;5034241;28;20036;-74
2022/11/27 09:30:40;;;;;;;33.55;15.68;;;;;;;;;;5035618;28;20029;-75
2022/11/27 09:33:06;;;;;;;39.33;16.92;;;;;;;;;;5035415;28;20030;-74
2022/11/27 09:35:32;;;;;;;35.67;16.48;;;;;;;;;;5035015;28;20508;-76
2022/11/27 09:37:58;;;;;;;34.53;16.15;;;;;;;;;;5035450;28;20061;-75
2022/11/27 09:40:24;;;;;;;35.10;16.95;;;;;;;;;;5035318;28;20105;-75
2022/11/27 09:42:54;;;;;;;37.15;17.80;;;;;;;;;;5034758;28;20026;-75
2022/11/27 09:45:21;;;;;;;39.63;17.20;;;;;;;;;;5034672;28;20085;-74
2022/11/27 09:47:49;;;;;;;35.20;16.35;;;;;;;;;;5035020;28;20051;-73
2022/11/27 09:50:23;;;;;;;40.70;16.52;;;;;;;;;;5035065;28;20064;-76
2022/11/27 09:52:57;;;;;;;33.45;16.10;;;;;;;;;;5034910;28;20029;-76
2022/11/27 09:55:25;;;;;;;37.00;16.77;;;;;;;;;;5034587;28;20528;-75
2022/11/27 09:57:55;;;;;;;32.60;16.13;;;;;;;;;;5033313;28;20068;-76
2022/11/27 10:00:21;;;;;;;34.78;15.98;;;;;;;;;;5034620;28;20075;-75
2022/11/27 10:02:47;;;;;;;36.88;16.55;;;;;;;;;;5035318;28;20033;-76
2022/11/27 10:05:16;;;;;;;37.60;16.58;;;;;;;;;;5041771;28;20550;-77
2022/11/27 10:07:51;;;;;;;40.95;16.70;;;;;;;;;;5049654;28;20109;-78
2022/11/27 10:10:20;;;;;;;40.55;16.27;;;;;;;;;;5052304;28;20026;-79
2022/11/27 10:12:54;;;;;;;40.40;16.02;;;;;;;;;;5050232;28;20029;-77
2022/11/27 10:15:36;;;;;;;32.58;16.35;;;;;;;;;;5051133;28;20280;-77
2022/11/27 10:18:15;;;;;;;31.15;15.50;;;;;;;;;;5047473;28;20121;-77
2022/11/27 10:20:45;;;;;;;39.08;16.75;;;;;;;;;;5038204;28;20029;-78
2022/11/27 10:23:14;;;;;;;37.13;16.65;;;;;;;;;;5037239;28;20396;-79
2022/11/27 10:25:44;;;;;;;39.22;15.32;;;;;;;;;;5044840;28;20018;-79
2022/11/27 10:28:21;;;;;;;37.95;16.70;;;;;;;;;;5042756;28;20088;-78
2022/11/27 10:30:49;;;;;;;33.60;15.55;;;;;;;;;;5043691;28;20025;-78
2022/11/27 10:33:19;;;;;;;37.45;16.05;;;;;;;;;;5049445;28;20025;-76
2022/11/27 10:35:47;;;;;;;30.10;14.93;;;;;;;;;;5053240;28;20025;-77
2022/11/27 10:38:21;;;;;;;32.92;14.90;;;;;;;;;;5051463;28;20030;-78
2022/11/27 10:40:58;;;;;;;45.50;16.20;;;;;;;;;;5057312;28;20052;-79
2022/11/27 10:43:24;;;;;;;33.97;14.68;;;;;;;;;;5058584;28;20299;-79
2022/11/27 10:46:09;;;;;;;37.28;15.07;;;;;;;;;;5053827;28;20053;-78
2022/11/27 10:48:35;;;;;;;34.80;14.93;;;;;;;;;;5041124;28;20473;-75
2022/11/27 10:51:01;;;;;;;30.73;15.60;;;;;;;;;;5034179;28;20029;-76
2022/11/27 10:53:31;;;;;;;35.58;14.52;;;;;;;;;;5033492;28;20089;-75
2022/11/27 10:55:57;;;;;;;31.48;15.15;;;;;;;;;;5033673;28;20032;-76
2022/11/27 10:58:26;;;;;;;30.27;14.43;;;;;;;;;;5038144;28;20034;-76
2022/11/27 11:01:06;;;;;;;30.75;14.90;;;;;;;;;;5051738;28;20033;-77
2022/11/27 11:03:33;;;;;;;29.27;13.57;;;;;;;;;;5057175;28;20104;-76
2022/11/27 11:06:04;;;;;;;33.90;13.52;;;;;;;;;;5055485;28;20061;-76
2022/11/27 11:08:31;;;;;;;33.28;14.45;;;;;;;;;;5049039;28;20021;-74
2022/11/27 11:10:58;;;;;;;36.85;14.07;;;;;;;;;;5045751;28;20459;-77
2022/11/27 11:13:28;;;;;;;37.35;14.95;;;;;;;;;;5036585;28;20029;-76
2022/11/27 11:15:56;;;;;;;31.73;14.85;;;;;;;;;;5032237;28;20482;-77
2022/11/27 11:18:29;;;;;;;31.23;14.02;;;;;;;;;;5032385;28;20034;-76
2022/11/27 11:20:57;;;;;;;32.42;14.35;;;;;;;;;;5032169;28;20025;-74
2022/11/27 11:23:25;;;;;;;38.10;14.75;;;;;;;;;;5032572;28;20025;-75
2022/11/27 11:25:53;;;;;;;30.33;15.00;;;;;;;;;;5030922;28;20027;-74
2022/11/27 11:28:19;;;;;;;34.63;15.02;;;;;;;;;;5031922;28;20025;-75
2022/11/27 11:30:52;;;;;;;30.17;13.38;;;;;;;;;;5031927;28;20025;-77
2022/11/27 11:33:18;;;;;;;31.92;13.55;;;;;;;;;;5032799;28;20079;-76
2022/11/27 11:35:50;;;;;;;29.48;12.80;;;;;;;;;;5032539;28;20037;-76
2022/11/27 11:38:18;;;;;;;33.53;13.73;;;;;;;;;;5033343;28;20029;-76
2022/11/27 11:40:55;;;;;;;38.00;16.20;;;;;;;;;;5033167;28;20030;-77
2022/11/27 11:43:29;;;;;;;31.80;13.93;;;;;;;;;;5037305;28;20072;-77
2022/11/27 11:46:02;;;;;;;26.33;11.38;;;;;;;;;;5041644;28;20080;-75
2022/11/27 11:48:28;;;;;;;30.42;14.57;;;;;;;;;;5040988;28;20059;-77
2022/11/27 11:50:59;;;;;;;36.50;14.80;;;;;;;;;;5037287;28;20083;-76
2022/11/27 11:53:38;;;;;;;39.90;15.50;;;;;;;;;;5034352;28;20036;-76
2022/11/27 11:56:23;;;;;;;32.17;15.38;;;;;;;;;;5036188;28;20036;-76
2022/11/27 11:59:03;;;;;;;32.05;14.10;;;;;;;;;;5035718;28;20029;-77
2022/11/27 12:01:42;;;;;;;36.63;15.32;;;;;;;;;;5033429;28;20018;-77
2022/11/27 12:04:08;;;;;;;37.72;14.80;;;;;;;;;;5033221;28;20048;-76
2022/11/27 12:06:37;;;;;;;33.10;14.65;;;;;;;;;;5032475;28;20519;-76
2022/11/27 12:09:03;;;;;;;32.13;14.77;;;;;;;;;;5033610;28;20040;-76
2022/11/27 12:11:41;;;;;;;32.17;14.35;;;;;;;;;;5037599;28;20462;-76
2022/11/27 12:14:13;;;;;;;29.23;14.48;;;;;;;;;;5045344;28;20030;-78
2022/11/27 12:17:01;;;;;;;32.45;14.52;;;;;;;;;;5056683;28;20032;-75
2022/11/27 12:19:47;;;;;;;36.97;15.10;;;;;;;;;;5051233;28;20033;-78
2022/11/27 12:22:21;;;;;;;39.92;15.55;;;;;;;;;;5017210;28;20037;-78
2022/11/27 12:25:14;;;;;;;33.20;15.60;;;;;;;;;;5042513;28;20518;-77
2022/11/27 12:27:46;;;;;;;42.95;16.33;;;;;;;;;;5047158;28;20029;-76
2022/11/27 12:30:15;;;;;;;43.65;16.83;;;;;;;;;;5044668;28;20033;-76
2022/11/27 12:33:00;;;;;;;36.25;15.15;;;;;;;;;;5041974;28;20018;-77
2022/11/27 12:35:33;;;;;;;30.77;14.40;;;;;;;;;;5039987;28;20506;-78
2022/11/27 12:38:14;;;;;;;34.22;13.73;;;;;;;;;;5038671;28;20474;-77
2022/11/27 12:40:40;;;;;;;29.52;12.52;;;;;;;;;;5037777;28;20029;-75
2022/11/27 12:43:25;;;;;;;28.77;12.48;;;;;;;;;;5039988;28;20029;-77
2022/11/27 12:45:51;;;;;;;;;;;;;;;;;;5057217;28;20038;-77
2022/11/27 12:48:20;;;;;;;31.38;11.90;;;;;;;;;;5057209;28;19912;-76
2022/11/27 12:50:51;;;;;;;32.67;12.98;;;;;;;;;;5048105;28;20117;-77
2022/11/27 12:53:17;;;;;;;29.58;12.23;;;;;;;;;;5036975;28;20059;-76
2022/11/27 12:55:45;;;;;;;33.55;13.18;;;;;;;;;;5036528;28;20022;-76
2022/11/27 12:58:23;;;;;;;30.90;12.40;;;;;;;;;;5036148;28;20506;-76
2022/11/27 13:00:51;;;;;;;28.58;12.15;;;;;;;;;;5035935;28;20469;-76
2022/11/27 13:03:22;;;;;;;34.03;12.88;;;;;;;;;;5035368;28;20101;-76
2022/11/27 13:06:00;;;;;;;30.10;12.55;;;;;;;;;;5036549;28;20034;-76
2022/11/27 13:08:38;;;;;;;34.58;12.23;;;;;;;;;;5036431;28;20025;-76
2022/11/27 13:11:06;;;;;;;29.83;12.40;;;;;;;;;;5036484;28;20044;-76
2022/11/27 13:13:35;;;;;;;26.27;12.35;;;;;;;;;;5037829;28;20029;-76
2022/11/27 13:16:04;;;;;;;27.77;12.05;;;;;;;;;;5039546;28;20049;-75
2022/11/27 13:18:33;;;;;;;26.50;11.73;;;;;;;;;;5054263;28;20013;-74
2022/11/27 13:21:01;;;;;;;26.35;11.35;;;;;;;;;;5048944;28;20021;-75
2022/11/27 13:23:30;;;;;;;25.35;10.95;;;;;;;;;;5056354;28;20057;-77
2022/11/27 13:25:57;;;;;;;32.47;12.48;;;;;;;;;;5057195;28;20049;-76
2022/11/27 13:28:23;;;;;;;25.67;11.52;;;;;;;;;;5035032;28;20029;-75
2022/11/27 13:30:49;;;;;;;27.35;12.10;;;;;;;;;;5045203;28;20500;-75
2022/11/27 13:33:26;;;;;;;24.70;11.25;;;;;;;;;;5032765;28;20089;-75
2022/11/27 13:35:53;;;;;;;27.45;10.70;;;;;;;;;;5033757;28;20033;-76
2022/11/27 13:38:24;;;;;;;24.55;10.80;;;;;;;;;;5033536;28;20033;-75
2022/11/27 13:40:51;;;;;;;24.90;10.07;;;;;;;;;;5028373;28;20045;-75
2022/11/27 13:43:36;;;;;;;21.52;9.98;;;;;;;;;;5033802;28;20378;-76
2022/11/27 13:46:04;;;;;;;27.85;10.85;;;;;;;;;;5033655;28;20493;-75
2022/11/27 13:48:36;;;;;;;24.05;10.43;;;;;;;;;;5038426;28;20029;-76
2022/11/27 13:51:03;;;;;;;32.40;11.70;;;;;;;;;;5034548;28;20147;-77
2022/11/27 13:53:29;;;;;;;27.23;10.98;;;;;;;;;;5033772;28;20474;-76
2022/11/27 13:55:56;;;;;;;23.80;10.85;;;;;;;;;;5033750;28;20033;-76
2022/11/27 13:58:36;;;;;;;28.42;11.07;;;;;;;;;;5033601;28;20032;-78
2022/11/27 14:01:12;;;;;;;33.17;12.30;;;;;;;;;;5034317;28;20049;-76
2022/11/27 14:03:38;;;;;;;20.40;10.25;;;;;;;;;;5026369;28;20025;-76
2022/11/27 14:06:14;;;;;;;29.83;10.57;;;;;;;;;;5032871;28;20083;-75
2022/11/27 14:08:48;;;;;;;25.52;10.85;;;;;;;;;;5022677;28;20025;-76
2022/11/27 14:11:14;;;;;;;39.53;11.82;;;;;;;;;;5037635;28;20037;-75
2022/11/27 14:13:43;;;;;;;24.02;11.40;;;;;;;;;;5039681;28;20043;-76
2022/11/27 14:16:19;;;;;;;28.95;11.68;;;;;;;;;;5034993;28;20030;-76
2022/11/27 14:18:50;;;;;;;23.10;10.75;;;;;;;;;;5033972;28;20083;-76
2022/11/27 14:21:23;;;;;;;26.23;10.32;;;;;;;;;;5033757;28;20052;-75
2022/11/27 14:23:50;;;;;;;28.83;9.88;;;;;;;;;;5034117;28;20021;-76
2022/11/27 14:26:21;;;;;;;27.77;11.27;;;;;;;;;;5031714;28;20029;-76